createdAt,value
2018-05-17T00:01:45.297Z,100645.54
2018-05-17T00:04:12.695Z,100637.79
2018-05-17T00:06:40.083Z,100643.84
2018-05-17T00:09:07.483Z,100644.52
2018-05-17T00:11:34.883Z,100637.12
2018-05-17T00:14:02.269Z,100631.59
2018-05-17T00:16:29.667Z,100630.41
2018-05-17T00:18:57.055Z,100627.16
2018-05-17T00:21:24.470Z,100627.23
2018-05-17T00:23:51.871Z,100623.52
2018-05-17T00:26:19.257Z,100620.08
2018-05-17T00:28:46.657Z,100614.37
2018-05-17T00:31:14.049Z,100614.26
2018-05-17T00:33:41.443Z,100604.38
2018-05-17T00:36:08.868Z,100605.39
2018-05-17T00:38:36.261Z,100603.25
2018-05-17T00:41:03.655Z,100604.09
2018-05-17T00:43:31.045Z,100605.58
2018-05-17T00:45:58.440Z,100604.71
2018-05-17T00:48:25.849Z,100601.35
2018-05-17T00:50:53.248Z,100603.63
2018-05-17T00:53:31.612Z,100596.14
2018-05-17T00:55:59.019Z,100590.28
2018-05-17T00:58:26.408Z,100594.69
2018-05-17T01:00:53.821Z,100589.83
2018-05-17T01:03:21.236Z,100588.91
2018-05-17T01:05:48.640Z,100584.08
2018-05-17T01:08:16.065Z,100587.00
2018-05-17T01:10:43.476Z,100589.48
2018-05-17T01:13:10.867Z,100586.96
2018-05-17T01:15:38.260Z,100588.72
2018-05-17T01:18:05.662Z,100578.67
2018-05-17T01:20:33.047Z,100580.42
2018-05-17T01:23:00.449Z,100581.55
2018-05-17T01:25:27.862Z,100579.92
2018-05-17T01:27:55.255Z,100573.08
2018-05-17T01:30:22.649Z,100568.16
2018-05-17T01:32:50.051Z,100572.41
2018-05-17T01:35:17.431Z,100566.05
2018-05-17T01:37:56.579Z,100578.95
2018-05-17T01:40:23.963Z,100572.11
2018-05-17T01:42:51.361Z,100574.95
2018-05-17T01:45:18.783Z,100568.86
2018-05-17T01:47:46.193Z,100571.34
2018-05-17T01:50:13.600Z,100574.86
2018-05-17T01:52:41.114Z,100565.61
2018-05-17T01:55:08.506Z,100584.80
2018-05-17T01:57:35.893Z,100580.25
2018-05-17T02:00:03.280Z,100586.19
2018-05-17T02:02:30.683Z,100580.65
2018-05-17T02:04:58.089Z,100575.58
2018-05-17T02:07:25.487Z,100580.55
2018-05-17T02:09:52.875Z,100585.23
2018-05-17T02:12:20.281Z,100585.06
2018-05-17T02:14:47.669Z,100577.69
2018-05-17T02:17:15.068Z,100577.33
2018-05-17T02:19:42.469Z,100578.99
2018-05-17T02:22:09.862Z,100586.20
2018-05-17T02:24:37.272Z,100586.31
2018-05-17T02:27:04.666Z,100587.53
2018-05-17T02:29:32.063Z,100582.31
2018-05-17T02:31:59.457Z,100588.26
2018-05-17T02:34:26.857Z,100587.56
2018-05-17T02:36:54.245Z,100587.80
2018-05-17T02:39:21.651Z,100588.88
2018-05-17T02:41:49.080Z,100595.33
2018-05-17T02:44:16.463Z,100601.92
2018-05-17T02:46:43.863Z,100599.75
2018-05-17T02:49:11.292Z,100597.92
2018-05-17T02:51:38.662Z,100594.52
2018-05-17T02:54:06.043Z,100598.51
2018-05-17T02:56:33.431Z,100596.17
2018-05-17T02:59:00.833Z,100591.66
2018-05-17T03:01:28.220Z,100597.17
2018-05-17T03:03:55.611Z,100600.02
2018-05-17T03:06:23.017Z,100597.36
2018-05-17T03:08:50.411Z,100601.41
2018-05-17T03:11:17.795Z,100594.99
2018-05-17T03:13:45.192Z,100599.83
2018-05-17T03:16:12.594Z,100598.73
2018-05-17T03:18:40.013Z,100598.42
2018-05-17T03:21:07.403Z,100596.17
2018-05-17T03:23:34.805Z,100603.80
2018-05-17T03:26:02.235Z,100599.19
2018-05-17T03:28:29.621Z,100598.48
2018-05-17T03:30:57.012Z,100598.98
2018-05-17T03:33:24.433Z,100605.91
2018-05-17T03:35:51.840Z,100598.83
2018-05-17T03:38:19.408Z,100600.72
2018-05-17T03:40:46.675Z,100608.55
2018-05-17T03:43:14.067Z,100602.97
2018-05-17T03:45:41.460Z,100607.02
2018-05-17T03:48:08.842Z,100607.23
2018-05-17T03:50:36.292Z,100606.41
2018-05-17T03:53:03.679Z,100607.38
2018-05-17T03:55:31.075Z,100606.23
2018-05-17T03:57:58.475Z,100604.34
2018-05-17T04:00:26.606Z,100612.51
2018-05-17T04:03:05.825Z,100612.66
2018-05-17T04:05:45.178Z,100621.58
2018-05-17T04:08:12.558Z,100616.45
2018-05-17T04:10:39.961Z,100621.41
2018-05-17T04:13:07.342Z,100617.67
2018-05-17T04:15:34.735Z,100621.97
2018-05-17T04:18:02.143Z,100621.04
2018-05-17T04:20:29.533Z,100609.05
2018-05-17T04:22:56.927Z,100619.80
2018-05-17T04:25:24.323Z,100625.91
2018-05-17T04:27:51.703Z,100622.00
2018-05-17T04:30:19.095Z,100621.52
2018-05-17T04:32:46.477Z,100629.38
2018-05-17T04:35:13.868Z,100630.37
2018-05-17T04:37:41.270Z,100631.22
2018-05-17T04:40:08.659Z,100633.06
2018-05-17T04:42:36.048Z,100629.87
2018-05-17T04:45:03.460Z,100629.78
2018-05-17T04:47:30.872Z,100636.94
2018-05-17T04:49:58.255Z,100641.48
2018-05-17T04:52:25.646Z,100639.94
2018-05-17T04:54:53.028Z,100634.86
2018-05-17T04:57:20.418Z,100636.52
2018-05-17T04:59:47.804Z,100645.20
2018-05-17T05:02:15.193Z,100651.16
2018-05-17T05:04:42.579Z,100656.15
2018-05-17T05:07:09.997Z,100656.11
2018-05-17T05:09:37.371Z,100655.12
2018-05-17T05:12:04.765Z,100665.03
2018-05-17T05:14:32.153Z,100665.44
2018-05-17T05:16:59.554Z,100661.93
2018-05-17T05:19:26.940Z,100671.95
2018-05-17T05:21:54.335Z,100670.81
2018-05-17T05:24:21.715Z,100672.28
2018-05-17T05:26:49.104Z,100665.66
2018-05-17T05:29:16.811Z,100678.40
2018-05-17T05:31:44.219Z,100683.14
2018-05-17T05:34:11.599Z,100681.68
2018-05-17T05:36:38.979Z,100677.05
2018-05-17T05:39:06.401Z,100689.25
2018-05-17T05:41:33.793Z,100689.53
2018-05-17T05:44:01.175Z,100687.06
2018-05-17T05:46:28.559Z,100698.64
2018-05-17T05:48:55.952Z,100707.64
2018-05-17T05:51:23.331Z,100708.58
2018-05-17T05:53:50.727Z,100702.47
2018-05-17T05:56:18.124Z,100706.20
2018-05-17T05:58:45.507Z,100701.31
2018-05-17T06:01:12.888Z,100706.81
2018-05-17T06:03:51.025Z,100704.72
2018-05-17T06:06:19.577Z,100707.61
2018-05-17T06:08:55.051Z,100701.94
2018-05-17T06:11:30.365Z,100713.42
2018-05-17T06:14:01.394Z,100711.95
2018-05-17T06:16:29.036Z,100716.73
2018-05-17T06:18:57.347Z,100720.35
2018-05-17T06:21:24.785Z,100718.70
2018-05-17T06:23:55.877Z,100721.27
2018-05-17T06:26:24.936Z,100728.62
2018-05-17T06:28:52.459Z,100726.86
2018-05-17T06:31:19.857Z,100729.13
2018-05-17T06:33:47.248Z,100729.95
2018-05-17T06:36:14.619Z,100732.63
2018-05-17T06:38:42.013Z,100732.64
2018-05-17T06:41:09.991Z,100737.58
2018-05-17T06:43:37.370Z,100746.69
2018-05-17T06:46:04.768Z,100742.78
2018-05-17T06:48:32.173Z,100746.50
2018-05-17T06:50:59.564Z,100749.18
2018-05-17T06:53:26.952Z,100748.27
2018-05-17T06:55:54.360Z,100749.41
2018-05-17T06:58:21.749Z,100755.81
2018-05-17T07:00:49.214Z,100762.02
2018-05-17T07:03:16.516Z,100754.25
2018-05-17T07:05:43.935Z,100756.66
2018-05-17T07:08:11.971Z,100760.77
2018-05-17T07:10:39.352Z,100751.45
2018-05-17T07:13:07.377Z,100756.45
2018-05-17T07:15:34.785Z,100756.53
2018-05-17T07:18:02.326Z,100765.03
2018-05-17T07:20:29.555Z,100764.31
2018-05-17T07:22:56.946Z,100760.77
2018-05-17T07:25:24.333Z,100767.89
2018-05-17T07:27:51.720Z,100764.86
2018-05-17T07:30:19.105Z,100769.23
2018-05-17T07:46:31.018Z,100783.42
2018-05-17T07:48:58.397Z,100783.81
2018-05-17T07:51:25.810Z,100789.77
2018-05-17T07:53:53.233Z,100793.82
2018-05-17T07:56:20.640Z,100800.84
2018-05-17T07:58:48.019Z,100797.77
2018-05-17T08:01:15.416Z,100796.77
2018-05-17T08:03:42.808Z,100799.11
2018-05-17T08:06:10.195Z,100798.30
2018-05-17T08:08:37.590Z,100800.66
2018-05-17T08:11:04.984Z,100804.20
2018-05-17T08:13:32.365Z,100803.78
2018-05-17T08:15:59.789Z,100813.94
2018-05-17T08:18:27.173Z,100804.84
2018-05-17T08:20:54.571Z,100803.92
2018-05-17T08:23:21.959Z,100803.62
2018-05-17T08:25:49.351Z,100805.77
2018-05-17T08:28:16.758Z,100804.88
2018-05-17T08:30:44.136Z,100805.86
2018-05-17T08:33:11.557Z,100807.44
2018-05-17T08:35:38.943Z,100811.38
2018-05-17T08:38:06.344Z,100818.09
2018-05-17T08:40:33.746Z,100817.38
2018-05-17T08:43:01.155Z,100813.22
2018-05-17T08:45:28.543Z,100822.11
2018-05-17T08:47:55.923Z,100827.08
2018-05-17T08:50:23.308Z,100828.27
2018-05-17T08:52:50.699Z,100829.02
2018-05-17T08:55:18.101Z,100830.28
2018-05-17T08:57:45.492Z,100834.67
2018-05-17T09:00:12.871Z,100843.47
2018-05-17T09:02:40.303Z,100835.47
2018-05-17T09:05:07.686Z,100833.53
2018-05-17T09:07:35.076Z,100838.22
2018-05-17T09:10:02.468Z,100837.04
2018-05-17T09:12:29.900Z,100837.55
2018-05-17T09:14:57.236Z,100835.03
2018-05-17T09:17:25.276Z,100837.68
2018-05-17T09:19:52.676Z,100842.59
2018-05-17T09:22:20.065Z,100840.61
2018-05-17T09:24:47.458Z,100837.63
2018-05-17T09:27:14.835Z,100845.29
2018-05-17T09:29:42.235Z,100841.70
2018-05-17T09:32:09.619Z,100844.22
2018-05-17T09:34:37.013Z,100841.34
2018-05-17T09:37:04.401Z,100839.39
2018-05-17T09:39:31.794Z,100840.95
2018-05-17T09:41:59.180Z,100841.13
2018-05-17T09:44:26.577Z,100837.70
2018-05-17T09:46:53.957Z,100835.77
2018-05-17T09:49:21.372Z,100840.28
2018-05-17T09:51:48.747Z,100843.80
2018-05-17T09:54:16.152Z,100840.37
2018-05-17T09:56:43.532Z,100839.31
2018-05-17T09:59:10.928Z,100833.39
2018-05-17T10:01:38.308Z,100826.11
2018-05-17T10:04:05.721Z,100829.73
2018-05-17T10:06:33.104Z,100821.52
2018-05-17T10:09:00.593Z,100828.95
2018-05-17T10:11:27.897Z,100823.19
2018-05-17T10:13:55.299Z,100827.19
2018-05-17T10:16:22.680Z,100821.62
2018-05-17T10:18:50.093Z,100820.58
2018-05-17T10:21:17.596Z,100819.67
2018-05-17T10:23:45.016Z,100822.18
2018-05-17T10:26:12.420Z,100824.44
2018-05-17T10:28:39.807Z,100830.09
2018-05-17T10:31:07.202Z,100822.53
2018-05-17T10:33:34.584Z,100820.20
2018-05-17T10:36:01.983Z,100831.90
2018-05-17T10:38:29.368Z,100823.20
2018-05-17T10:40:56.765Z,100827.94
2018-05-17T10:43:24.167Z,100826.11
2018-05-17T10:45:51.568Z,100811.17
2018-05-17T10:48:18.955Z,100820.58
2018-05-17T10:50:46.352Z,100821.20
2018-05-17T10:53:13.742Z,100821.62
2018-05-17T10:55:41.289Z,100824.73
2018-05-17T10:58:08.663Z,100826.11
2018-05-17T11:00:36.047Z,100824.34
2018-05-17T11:03:03.468Z,100826.89
2018-05-17T11:05:30.844Z,100829.56
2018-05-17T11:07:58.234Z,100825.00
2018-05-17T11:10:25.620Z,100829.55
2018-05-17T11:12:53.056Z,100828.84
2018-05-17T11:15:20.454Z,100834.13
2018-05-17T11:17:47.821Z,100830.41
2018-05-17T11:20:15.226Z,100829.50
2018-05-17T11:22:42.620Z,100819.58
2018-05-17T11:25:09.996Z,100823.21
2018-05-17T11:27:37.400Z,100827.11
2018-05-17T11:30:04.785Z,100823.78
2018-05-17T11:32:32.177Z,100820.39
2018-05-17T11:34:59.565Z,100832.27
2018-05-17T11:37:26.957Z,100832.33
2018-05-17T11:39:54.327Z,100826.32
2018-05-17T11:42:21.711Z,100819.23
2018-05-17T11:44:49.119Z,100838.36
2018-05-17T11:47:16.521Z,100822.80
2018-05-17T11:49:43.935Z,100816.63
2018-05-17T11:52:11.322Z,100812.42
2018-05-17T11:54:38.706Z,100811.06
2018-05-17T11:57:06.091Z,100823.01
2018-05-17T11:59:33.508Z,100812.70
2018-05-17T12:02:00.904Z,100815.86
2018-05-17T12:04:28.289Z,100811.92
2018-05-17T12:06:58.492Z,100818.94
2018-05-17T12:09:32.671Z,100814.02
2018-05-17T12:12:01.667Z,100810.37
2018-05-17T12:14:32.409Z,100811.45
2018-05-17T12:17:01.135Z,100816.13
2018-05-17T12:19:29.355Z,100810.17
2018-05-17T12:22:02.706Z,100817.13
2018-05-17T12:24:31.352Z,100816.23
2018-05-17T12:27:00.351Z,100816.11
2018-05-17T12:29:29.559Z,100808.79
2018-05-17T12:31:59.814Z,100809.34
2018-05-17T12:34:27.495Z,100801.60
2018-05-17T12:37:00.345Z,100810.02
2018-05-17T12:39:29.661Z,100807.32
2018-05-17T12:41:58.032Z,100804.27
2018-05-17T12:44:25.647Z,100811.05
2018-05-17T12:46:53.195Z,100812.92
2018-05-17T12:49:22.688Z,100805.61
2018-05-17T12:51:51.074Z,100802.78
2018-05-17T12:54:20.392Z,100800.95
2018-05-17T12:56:49.217Z,100804.84
2018-05-17T12:59:17.547Z,100805.23
2018-05-17T13:01:44.948Z,100802.05
2018-05-17T13:04:12.335Z,100799.27
2018-05-17T13:06:39.746Z,100805.25
2018-05-17T13:09:07.996Z,100803.86
2018-05-17T13:11:35.391Z,100809.70
2018-05-17T13:14:02.785Z,100812.36
2018-05-17T13:16:30.167Z,100803.36
2018-05-17T13:18:57.560Z,100803.95
2018-05-17T13:21:24.936Z,100801.28
2018-05-17T13:23:52.324Z,100803.61
2018-05-17T13:26:19.712Z,100804.20
2018-05-17T13:28:47.104Z,100801.42
2018-05-17T13:31:14.492Z,100795.91
2018-05-17T13:33:41.891Z,100797.30
2018-05-17T13:36:10.376Z,100797.84
2018-05-17T13:38:37.787Z,100792.50
2018-05-17T13:41:05.172Z,100792.52
2018-05-17T13:43:32.553Z,100790.16
2018-05-17T13:45:59.958Z,100785.34
2018-05-17T13:48:27.338Z,100786.53
2018-05-17T13:50:54.728Z,100786.11
2018-05-17T13:53:22.112Z,100790.86
2018-05-17T13:55:49.508Z,100790.67
2018-05-17T13:58:16.886Z,100773.39
2018-05-17T14:00:44.303Z,100776.41
2018-05-17T14:03:11.675Z,100779.84
2018-05-17T14:05:39.077Z,100780.83
2018-05-17T14:08:06.463Z,100779.09
2018-05-17T14:10:33.867Z,100778.39
2018-05-17T14:13:01.273Z,100773.42
2018-05-17T14:15:28.674Z,100773.17
2018-05-17T14:17:56.053Z,100773.55
2018-05-17T14:20:23.437Z,100761.80
2018-05-17T14:22:50.816Z,100766.66
2018-05-17T14:25:18.211Z,100765.78
2018-05-17T14:27:45.609Z,100768.16
2018-05-17T14:30:13.000Z,100767.69
2018-05-17T14:32:40.384Z,100765.97
2018-05-17T14:35:07.796Z,100767.86
2018-05-17T14:37:35.194Z,100765.84
2018-05-17T14:40:02.577Z,100768.73
2018-05-17T14:42:29.964Z,100762.09
2018-05-17T14:44:57.351Z,100773.70
2018-05-17T14:47:24.744Z,100769.23
2018-05-17T14:49:52.124Z,100772.95
2018-05-17T14:52:19.512Z,100770.03
2018-05-17T14:54:46.906Z,100766.86
2018-05-17T14:57:14.298Z,100776.45
2018-05-17T14:59:41.690Z,100766.48
2018-05-17T15:02:09.100Z,100765.20
2018-05-17T15:04:36.479Z,100760.17
2018-05-17T15:07:03.881Z,100766.03
2018-05-17T15:09:31.288Z,100772.04
2018-05-17T15:17:40.375Z,100770.64
2018-05-17T15:20:07.781Z,100764.89
2018-05-17T15:22:35.173Z,100764.59
2018-05-17T15:25:02.572Z,100756.37
2018-05-17T15:27:30.094Z,100758.66
2018-05-17T15:29:57.391Z,100759.15
2018-05-17T15:32:24.752Z,100757.98
2018-05-17T15:34:52.161Z,100763.69
2018-05-17T15:37:20.303Z,100762.78
2018-05-17T15:39:48.337Z,100760.31
2018-05-17T15:42:15.728Z,100764.70
2018-05-17T15:44:43.115Z,100770.86
2018-05-17T15:47:11.102Z,100763.42
2018-05-17T15:49:38.497Z,100758.50
2018-05-17T15:52:05.889Z,100755.51
2018-05-17T15:54:33.261Z,100750.31
2018-05-17T15:57:00.654Z,100753.08
2018-05-17T15:59:28.043Z,100759.60
2018-05-17T16:01:55.432Z,100760.84
2018-05-17T16:04:22.823Z,100755.47
2018-05-17T16:06:50.200Z,100759.15
2018-05-17T16:09:17.595Z,100761.30
2018-05-17T16:11:44.980Z,100765.05
2018-05-17T16:14:12.385Z,100763.88
2018-05-17T16:16:39.763Z,100767.73
2018-05-17T16:19:07.175Z,100752.62
2018-05-17T16:21:34.563Z,100771.34
2018-05-17T16:24:01.948Z,100758.98
2018-05-17T16:26:29.324Z,100763.05
2018-05-17T16:28:56.721Z,100756.15
2018-05-17T16:31:24.098Z,100767.04
2018-05-17T16:33:51.486Z,100764.38
2018-05-17T16:36:18.869Z,100763.43
2018-05-17T16:38:46.259Z,100767.78
2018-05-17T16:41:13.654Z,100767.48
2018-05-17T16:43:41.045Z,100771.12
2018-05-17T16:46:08.444Z,100770.73
2018-05-17T16:48:35.918Z,100777.91
2018-05-17T16:51:03.215Z,100780.61
2018-05-17T16:53:30.620Z,100774.84
2018-05-17T16:55:58.002Z,100776.02
2018-05-17T16:58:25.382Z,100779.96
2018-05-17T17:00:53.136Z,100783.22
2018-05-17T17:03:20.521Z,100782.42
2018-05-17T17:05:47.906Z,100785.01
2018-05-17T17:08:15.297Z,100785.73
2018-05-17T17:10:43.211Z,100784.09
2018-05-17T17:13:10.611Z,100780.95
2018-05-17T17:15:38.017Z,100778.92
2018-05-17T17:18:05.396Z,100775.52
2018-05-17T17:20:32.792Z,100782.77
2018-05-17T17:23:00.180Z,100785.38
2018-05-17T17:25:27.583Z,100774.62
2018-05-17T17:27:54.964Z,100785.13
2018-05-17T17:30:22.356Z,100779.17
2018-05-17T17:32:49.739Z,100778.23
2018-05-17T17:35:17.131Z,100773.91
2018-05-17T17:37:44.530Z,100784.84
2018-05-17T17:40:11.908Z,100782.13
2018-05-17T17:42:39.283Z,100781.73
2018-05-17T17:45:06.683Z,100790.28
2018-05-17T17:47:34.075Z,100786.89
2018-05-17T17:50:01.549Z,100789.97
2018-05-17T17:52:28.856Z,100785.73
2018-05-17T17:54:56.266Z,100784.41
2018-05-17T17:57:23.643Z,100790.20
2018-05-17T17:59:51.038Z,100793.31
2018-05-17T18:02:18.425Z,100788.98
2018-05-17T18:04:45.803Z,100791.38
2018-05-17T18:07:13.199Z,100792.48
2018-05-17T18:09:40.588Z,100793.41
2018-05-17T18:12:07.965Z,100791.22
2018-05-17T18:14:35.361Z,100791.11
2018-05-17T18:17:02.769Z,100786.16
2018-05-17T18:19:30.149Z,100791.33
2018-05-17T18:21:57.549Z,100796.41
2018-05-17T18:24:24.919Z,100799.67
2018-05-17T18:26:52.318Z,100804.54
2018-05-17T18:29:19.698Z,100799.02
2018-05-17T18:31:47.096Z,100802.97
2018-05-17T18:34:14.476Z,100809.95
2018-05-17T18:36:41.939Z,100813.52
2018-05-17T18:39:09.239Z,100812.36
2018-05-17T18:41:36.623Z,100813.95
2018-05-17T18:44:04.008Z,100821.75
2018-05-17T18:46:31.409Z,100827.39
2018-05-17T18:48:58.862Z,100824.95
2018-05-17T18:51:26.220Z,100826.94
2018-05-17T18:53:53.648Z,100829.91
2018-05-17T18:56:21.027Z,100832.03
2018-05-17T18:58:48.417Z,100832.09
2018-05-17T19:01:15.828Z,100836.48
2018-05-17T19:03:43.219Z,100834.77
2018-05-17T19:06:10.600Z,100843.93
2018-05-17T19:08:38.019Z,100849.90
2018-05-17T19:11:05.390Z,100860.07
2018-05-17T19:13:32.772Z,100858.45
2018-05-17T19:16:00.152Z,100856.40
2018-05-17T19:18:27.559Z,100859.42
2018-05-17T19:20:54.949Z,100864.48
2018-05-17T19:23:22.334Z,100867.25
2018-05-17T19:25:49.819Z,100866.73
2018-05-17T19:28:17.108Z,100872.62
2018-05-17T19:30:44.484Z,100871.36
2018-05-17T19:33:11.876Z,100875.67
2018-05-17T19:35:39.281Z,100876.67
2018-05-17T19:38:06.664Z,100868.69
2018-05-17T19:40:34.063Z,100875.95
2018-05-17T19:43:01.468Z,100880.47
2018-05-17T19:45:28.877Z,100883.09
2018-05-17T19:47:56.260Z,100889.36
2018-05-17T19:50:23.679Z,100889.77
2018-05-17T19:52:51.079Z,100895.06
2018-05-17T19:55:18.449Z,100896.79
2018-05-17T19:57:45.933Z,100894.77
2018-05-17T20:00:13.324Z,100896.41
2018-05-17T20:02:40.715Z,100894.13
2018-05-17T20:05:08.103Z,100892.67
2018-05-17T20:07:35.509Z,100899.70
2018-05-17T20:10:02.884Z,100894.02
2018-05-17T20:12:30.275Z,100893.84
2018-05-17T20:14:57.671Z,100903.77
2018-05-17T20:17:25.058Z,100900.12
2018-05-17T20:19:52.440Z,100899.94
2018-05-17T20:22:19.822Z,100899.30
2018-05-17T20:24:47.230Z,100896.55
2018-05-17T20:27:14.713Z,100900.78
2018-05-17T20:29:42.028Z,100906.88
2018-05-17T20:32:09.416Z,100907.81
2018-05-17T20:34:36.813Z,100910.36
2018-05-17T20:37:04.207Z,100907.48
2018-05-17T20:39:31.602Z,100905.27
2018-05-17T20:41:58.984Z,100909.95
2018-05-17T20:44:26.372Z,100913.64
2018-05-17T20:46:53.764Z,100914.55
2018-05-17T20:49:21.153Z,100916.06
2018-05-17T20:51:48.543Z,100910.98
2018-05-17T20:54:16.024Z,100921.87
2018-05-17T20:56:43.420Z,100919.52
2018-05-17T20:59:10.858Z,100918.08
2018-05-17T21:01:38.247Z,100925.53
2018-05-17T21:04:05.644Z,100927.55
2018-05-17T21:06:33.044Z,100930.00
2018-05-17T21:09:00.418Z,100931.08
2018-05-17T21:11:27.803Z,100929.23
2018-05-17T21:13:55.204Z,100928.94
2018-05-17T21:16:22.591Z,100924.47
2018-05-17T21:18:49.976Z,100926.56
2018-05-17T21:21:17.374Z,100932.59
2018-05-17T21:23:44.748Z,100940.28
2018-05-17T21:26:12.137Z,100941.31
2018-05-17T21:28:39.515Z,100934.57
2018-05-17T21:31:06.908Z,100939.48
2018-05-17T21:33:34.283Z,100941.17
2018-05-17T21:36:01.697Z,100942.07
2018-05-17T21:38:29.068Z,100935.47
2018-05-17T21:40:56.469Z,100937.42
2018-05-17T21:43:23.849Z,100941.36
2018-05-17T21:45:51.240Z,100941.90
2018-05-17T21:48:18.675Z,100938.55
2018-05-17T21:50:46.072Z,100941.66
2018-05-17T21:53:13.468Z,100936.78
2018-05-17T21:55:40.888Z,100941.55
2018-05-17T21:58:08.275Z,100939.64
2018-05-17T22:00:35.696Z,100950.52
2018-05-17T22:03:03.089Z,100950.52
2018-05-17T22:05:30.855Z,100953.17
2018-05-17T22:08:07.289Z,100950.75
2018-05-17T22:10:36.109Z,100948.83
2018-05-17T22:13:23.969Z,100952.91
2018-05-17T22:16:00.394Z,100955.52
2018-05-17T22:18:42.547Z,100955.80
2018-05-17T22:24:06.372Z,100953.91
2018-05-17T22:26:40.687Z,100951.63
2018-05-17T22:29:10.347Z,100953.50
2018-05-17T22:31:42.355Z,100957.58
2018-05-17T22:34:12.923Z,100947.84
2018-05-17T22:36:40.984Z,100952.66
2018-05-17T22:39:11.187Z,100961.68
2018-05-17T22:41:40.362Z,100957.30
2018-05-17T22:44:12.271Z,100958.80
2018-05-17T22:46:45.967Z,100960.49
2018-05-17T22:49:28.411Z,100959.48
2018-05-17T22:52:00.496Z,100964.06
2018-05-17T22:54:29.952Z,100961.90
2018-05-17T22:57:12.825Z,100964.10
2018-05-17T23:02:29.968Z,100964.38
2018-05-17T23:04:57.669Z,100956.99
2018-05-17T23:07:27.491Z,100961.70
2018-05-17T23:09:59.217Z,100970.59
2018-05-17T23:12:28.326Z,100962.36
2018-05-17T23:14:56.559Z,100965.02
2018-05-17T23:17:32.031Z,100966.54
2018-05-17T23:20:01.180Z,100963.20
2018-05-17T23:22:35.952Z,100966.48
2018-05-17T23:25:04.317Z,100953.59
2018-05-17T23:27:32.675Z,100956.80
2018-05-17T23:30:00.560Z,100962.83
2018-05-17T23:32:30.200Z,100962.91
2018-05-17T23:34:57.747Z,100964.10
2018-05-17T23:37:25.840Z,100962.33
2018-05-17T23:39:54.721Z,100960.61
2018-05-17T23:42:24.587Z,100960.14
2018-05-17T23:44:53.137Z,100959.16
2018-05-17T23:47:22.203Z,100961.39
2018-05-17T23:49:52.619Z,100963.02
2018-05-17T23:52:20.112Z,100962.65
2018-05-17T23:54:48.669Z,100957.23
2018-05-17T23:57:17.377Z,100957.12
2018-05-17T23:59:50.725Z,100951.01
